createdAt,value
2018-08-16T00:00:02.964Z,13.38
2018-08-16T00:02:31.438Z,13.65
2018-08-16T00:04:59.760Z,13.68
2018-08-16T00:07:28.069Z,13.61
2018-08-16T00:09:56.871Z,13.53
2018-08-16T00:12:25.224Z,13.30
2018-08-16T00:14:53.550Z,13.27
2018-08-16T00:17:21.880Z,13.42
2018-08-16T00:19:50.146Z,13.38
2018-08-16T00:22:18.480Z,13.58
2018-08-16T00:24:46.774Z,13.62
2018-08-16T00:27:15.094Z,13.42
2018-08-16T00:29:43.502Z,13.55
2018-08-16T00:33:15.314Z,13.53
2018-08-16T00:35:43.602Z,13.24
2018-08-16T00:38:11.997Z,13.12
2018-08-16T00:40:40.335Z,13.03
2018-08-16T00:43:08.668Z,12.97
2018-08-16T00:45:37.014Z,13.02
2018-08-16T00:48:05.419Z,13.25
2018-08-16T00:50:34.022Z,13.28
2018-08-16T00:53:02.355Z,13.00
2018-08-16T00:55:30.691Z,12.87
2018-08-16T00:57:59.046Z,12.65
2018-08-16T01:00:27.358Z,12.76
2018-08-16T01:02:55.653Z,12.85
2018-08-16T01:05:24.027Z,13.04
2018-08-16T01:07:52.310Z,12.79
2018-08-16T01:10:20.562Z,12.41
2018-08-16T01:12:48.875Z,12.45
2018-08-16T01:15:17.521Z,12.88
2018-08-16T01:17:45.861Z,12.93
2018-08-16T01:20:14.379Z,13.00
2018-08-16T01:22:42.647Z,12.99
2018-08-16T01:25:12.051Z,12.69
2018-08-16T01:27:40.364Z,12.54
2018-08-16T01:30:09.744Z,12.32
2018-08-16T01:32:38.014Z,12.48
2018-08-16T01:35:06.802Z,12.70
2018-08-16T01:37:35.159Z,12.79
2018-08-16T01:40:03.607Z,12.88
2018-08-16T01:42:31.891Z,12.61
2018-08-16T01:45:00.217Z,12.52
2018-08-16T01:47:28.702Z,12.45
2018-08-16T01:49:56.982Z,12.42
2018-08-16T01:52:25.384Z,12.33
2018-08-16T01:54:53.669Z,12.46
2018-08-16T01:57:22.002Z,12.58
2018-08-16T01:59:50.370Z,12.68
2018-08-16T02:02:18.745Z,12.80
2018-08-16T02:04:47.029Z,12.81
2018-08-16T02:07:15.366Z,12.82
2018-08-16T02:09:43.754Z,12.23
2018-08-16T02:12:12.135Z,11.98
2018-08-16T02:14:40.462Z,12.03
2018-08-16T02:17:08.821Z,11.90
2018-08-16T02:19:37.111Z,11.90
2018-08-16T02:22:05.503Z,12.23
2018-08-16T02:24:33.776Z,12.28
2018-08-16T02:27:02.079Z,12.27
2018-08-16T02:29:30.394Z,12.21
2018-08-16T02:31:58.710Z,12.09
2018-08-16T02:34:27.281Z,11.97
2018-08-16T02:36:55.794Z,11.98
2018-08-16T02:39:24.159Z,11.80
2018-08-16T02:41:52.527Z,12.00
2018-08-16T02:44:20.875Z,11.96
2018-08-16T02:46:49.146Z,12.09
2018-08-16T02:49:17.488Z,11.96
2018-08-16T02:51:45.795Z,12.18
2018-08-16T02:54:14.136Z,12.17
2018-08-16T02:56:42.424Z,12.25
2018-08-16T02:59:10.744Z,11.94
2018-08-16T03:01:39.039Z,11.86
2018-08-16T03:04:07.456Z,11.75
2018-08-16T03:06:35.742Z,11.89
2018-08-16T03:09:05.631Z,11.83
2018-08-16T03:11:33.926Z,11.84
2018-08-16T03:14:02.257Z,11.73
2018-08-16T03:16:30.611Z,11.64
2018-08-16T03:18:58.938Z,11.60
2018-08-16T03:21:27.294Z,11.61
2018-08-16T03:23:55.888Z,11.40
2018-08-16T03:26:24.508Z,11.61
2018-08-16T03:28:59.472Z,11.69
2018-08-16T03:31:27.836Z,11.73
2018-08-16T03:33:56.115Z,11.70
2018-08-16T03:36:24.484Z,11.58
2018-08-16T03:38:52.759Z,11.49
2018-08-16T03:41:21.114Z,11.38
2018-08-16T03:43:49.419Z,11.33
2018-08-16T03:46:17.898Z,11.57
2018-08-16T03:48:46.169Z,11.51
2018-08-16T03:51:14.473Z,11.44
2018-08-16T03:53:42.773Z,11.54
2018-08-16T03:56:11.113Z,11.40
2018-08-16T03:58:39.408Z,11.31
2018-08-16T04:01:07.995Z,11.38
2018-08-16T04:03:36.314Z,11.38
2018-08-16T04:06:04.682Z,11.52
2018-08-16T04:08:33.134Z,11.60
2018-08-16T04:11:01.450Z,11.39
2018-08-16T04:13:29.778Z,11.25
2018-08-16T04:15:58.105Z,11.26
2018-08-16T04:18:26.520Z,11.41
2018-08-16T04:20:54.851Z,11.43
2018-08-16T04:23:23.347Z,11.52
2018-08-16T04:25:51.723Z,11.63
2018-08-16T04:28:20.022Z,11.59
2018-08-16T04:30:48.290Z,11.43
2018-08-16T04:33:16.585Z,11.38
2018-08-16T04:35:44.882Z,11.34
2018-08-16T04:38:13.239Z,11.45
2018-08-16T04:40:41.562Z,11.52
2018-08-16T04:43:09.894Z,11.69
2018-08-16T04:45:38.236Z,11.59
2018-08-16T04:48:07.140Z,11.84
2018-08-16T04:50:35.645Z,11.83
2018-08-16T04:53:04.114Z,11.74
2018-08-16T04:55:32.448Z,11.94
2018-08-16T04:58:00.824Z,12.10
2018-08-16T05:00:29.223Z,12.05
2018-08-16T05:02:57.574Z,12.14
2018-08-16T05:05:26.295Z,12.13
2018-08-16T05:07:54.613Z,12.21
2018-08-16T05:10:22.994Z,12.30
2018-08-16T05:12:51.571Z,12.39
2018-08-16T05:15:19.968Z,12.50
2018-08-16T05:17:48.410Z,12.62
2018-08-16T05:20:16.774Z,12.46
2018-08-16T05:22:45.253Z,12.63
2018-08-16T05:25:13.536Z,12.64
2018-08-16T05:27:41.886Z,12.76
2018-08-16T05:30:12.207Z,12.92
2018-08-16T05:32:40.877Z,13.00
2018-08-16T05:35:09.499Z,13.03
2018-08-16T05:37:38.652Z,13.14
2018-08-16T05:40:08.615Z,13.32
2018-08-16T05:42:37.042Z,13.46
2018-08-16T05:45:05.632Z,13.57
2018-08-16T05:47:33.947Z,13.73
2018-08-16T05:50:02.411Z,13.87
2018-08-16T05:52:30.726Z,13.95
2018-08-16T05:54:59.043Z,14.09
2018-08-16T05:57:27.385Z,14.23
2018-08-16T05:59:55.807Z,14.30
2018-08-16T06:02:24.179Z,14.37
2018-08-16T06:04:52.517Z,14.49
2018-08-16T06:07:21.176Z,14.65
2018-08-16T06:09:49.634Z,14.76
2018-08-16T06:12:17.995Z,14.88
2018-08-16T06:14:47.246Z,14.98
2018-08-16T06:17:15.942Z,15.11
2018-08-16T06:19:44.412Z,15.19
2018-08-16T06:22:12.782Z,15.31
2018-08-16T06:24:41.848Z,15.55
2018-08-16T06:27:10.253Z,15.62
2018-08-16T06:29:38.576Z,15.69
2018-08-16T06:32:07.208Z,15.92
2018-08-16T06:34:35.612Z,16.03
2018-08-16T06:37:04.147Z,16.00
2018-08-16T06:39:32.527Z,16.08
2018-08-16T06:42:00.817Z,16.11
2018-08-16T06:44:29.141Z,16.30
2018-08-16T06:46:57.946Z,16.42
2018-08-16T06:49:26.345Z,16.59
2018-08-16T06:51:54.878Z,16.63
2018-08-16T06:54:23.213Z,16.72
2018-08-16T06:56:51.500Z,16.76
2018-08-16T06:59:19.851Z,16.86
2018-08-16T07:01:48.246Z,16.97
2018-08-16T07:04:16.666Z,17.11
2018-08-16T07:06:45.113Z,17.12
2018-08-16T07:09:13.409Z,17.32
2018-08-16T07:11:41.722Z,17.48
2018-08-16T07:14:10.015Z,17.72
2018-08-16T07:16:38.288Z,17.88
2018-08-16T07:19:06.667Z,17.94
2018-08-16T07:21:34.951Z,18.04
2018-08-16T07:24:03.295Z,18.23
2018-08-16T07:26:31.575Z,18.29
2018-08-16T07:28:59.955Z,18.38
2018-08-16T07:31:28.270Z,18.37
2018-08-16T07:34:02.335Z,18.57
2018-08-16T07:36:30.643Z,18.83
2018-08-16T07:38:58.998Z,18.84
2018-08-16T07:41:27.299Z,18.94
2018-08-16T07:43:55.825Z,19.15
2018-08-16T07:46:24.165Z,19.24
2018-08-16T07:48:52.432Z,19.29
2018-08-16T07:51:21.011Z,19.27
2018-08-16T07:53:49.083Z,19.32
2018-08-16T07:56:17.386Z,19.49
2018-08-16T07:58:45.689Z,19.66
2018-08-16T08:01:16.970Z,19.66
2018-08-16T08:03:45.298Z,19.61
2018-08-16T08:06:13.683Z,19.66
2018-08-16T08:08:41.966Z,19.73
2018-08-16T08:11:10.266Z,19.71
2018-08-16T08:13:38.595Z,19.70
2018-08-16T08:16:06.987Z,19.80
2018-08-16T08:18:35.295Z,19.92
2018-08-16T08:21:03.609Z,19.89
2018-08-16T08:23:31.870Z,19.93
2018-08-16T08:26:00.190Z,20.07
2018-08-16T08:28:28.507Z,20.22
2018-08-16T08:30:56.846Z,20.32
2018-08-16T08:33:25.222Z,20.69
2018-08-16T08:36:05.123Z,20.64
2018-08-16T08:38:33.637Z,20.69
2018-08-16T08:41:02.227Z,20.86
2018-08-16T08:43:42.059Z,21.06
2018-08-16T08:46:10.517Z,20.97
2018-08-16T08:48:38.774Z,21.05
2018-08-16T08:51:07.096Z,21.08
2018-08-16T08:54:17.988Z,21.07
2018-08-16T08:56:57.779Z,21.48
2018-08-16T08:59:26.330Z,21.52
2018-08-16T09:01:54.575Z,21.75
2018-08-16T09:04:22.911Z,21.85
2018-08-16T09:06:51.260Z,21.68
2018-08-16T09:09:20.344Z,21.66
2018-08-16T09:11:59.905Z,21.61
2018-08-16T09:14:39.538Z,21.59
2018-08-16T09:17:08.233Z,21.63
2018-08-16T09:19:36.723Z,21.60
2018-08-16T09:22:05.117Z,21.70
2018-08-16T09:24:33.399Z,21.83
2018-08-16T09:27:01.707Z,21.88
2018-08-16T09:30:38.845Z,22.10
2018-08-16T09:33:18.591Z,22.44
2018-08-16T09:35:47.103Z,22.05
2018-08-16T09:38:15.397Z,22.11
2018-08-16T09:40:43.766Z,22.16
2018-08-16T09:43:12.043Z,22.13
2018-08-16T09:46:52.107Z,22.31
2018-08-16T09:49:20.390Z,22.41
2018-08-16T09:51:49.085Z,22.44
2018-08-16T09:54:17.295Z,22.61
2018-08-16T09:56:46.399Z,22.58
2018-08-16T09:59:14.714Z,22.60
2018-08-16T10:01:43.027Z,22.75
2018-08-16T10:04:11.406Z,23.08
2018-08-16T10:06:40.719Z,23.25
2018-08-16T10:09:13.067Z,23.03
2018-08-16T10:11:41.358Z,22.92
2018-08-16T10:14:09.670Z,23.21
2018-08-16T10:16:38.252Z,23.15
2018-08-16T10:19:06.814Z,23.22
2018-08-16T10:21:35.206Z,23.09
2018-08-16T10:24:03.959Z,23.12
2018-08-16T10:26:37.876Z,23.45
2018-08-16T10:29:06.942Z,23.64
2018-08-16T10:31:35.249Z,23.69
2018-08-16T10:34:03.571Z,23.91
2018-08-16T10:36:32.131Z,23.94
2018-08-16T10:39:00.443Z,24.05
2018-08-16T10:41:29.175Z,24.00
2018-08-16T10:43:57.556Z,24.09
2018-08-16T10:46:25.925Z,24.05
2018-08-16T10:48:54.268Z,24.03
2018-08-16T10:51:22.582Z,24.21
2018-08-16T10:53:50.932Z,24.22
2018-08-16T10:56:19.219Z,24.23
2018-08-16T10:58:47.521Z,24.16
2018-08-16T11:01:15.819Z,24.31
2018-08-16T11:03:44.159Z,24.20
2018-08-16T11:06:12.489Z,24.35
2018-08-16T11:08:40.899Z,24.30
2018-08-16T11:11:09.277Z,24.49
2018-08-16T11:13:37.928Z,24.35
2018-08-16T11:16:06.225Z,24.56
2018-08-16T11:18:34.551Z,24.61
2018-08-16T11:21:02.868Z,24.64
2018-08-16T11:23:31.153Z,24.70
2018-08-16T11:25:59.447Z,24.53
2018-08-16T11:28:27.742Z,24.69
2018-08-16T11:30:56.038Z,24.69
2018-08-16T11:33:25.385Z,24.82
2018-08-16T11:35:53.687Z,25.08
2018-08-16T11:38:22.023Z,25.02
2018-08-16T11:40:50.375Z,25.29
2018-08-16T11:43:18.722Z,25.54
2018-08-16T11:45:47.032Z,25.29
2018-08-16T11:48:15.332Z,25.12
2018-08-16T11:50:43.675Z,25.40
2018-08-16T11:53:12.030Z,25.38
2018-08-16T11:55:40.339Z,25.57
2018-08-16T11:58:08.663Z,25.66
2018-08-16T12:00:37.027Z,25.67
2018-08-16T12:03:05.934Z,25.84
2018-08-16T12:05:34.208Z,25.67
2018-08-16T12:08:02.537Z,25.87
2018-08-16T12:10:30.810Z,25.83
2018-08-16T12:12:59.191Z,26.06
2018-08-16T12:15:27.496Z,25.96
2018-08-16T12:17:55.819Z,25.93
2018-08-16T12:20:24.098Z,26.08
2018-08-16T12:22:52.540Z,25.99
2018-08-16T12:25:20.903Z,26.14
2018-08-16T12:27:49.267Z,26.44
2018-08-16T12:30:17.596Z,26.34
2018-08-16T12:32:46.015Z,26.40
2018-08-16T12:35:14.352Z,26.60
2018-08-16T12:37:42.860Z,26.33
2018-08-16T12:40:11.249Z,26.20
2018-08-16T12:42:39.590Z,26.45
2018-08-16T12:45:07.998Z,26.47
2018-08-16T12:47:36.320Z,26.68
2018-08-16T12:50:05.711Z,26.40
2018-08-16T12:52:34.328Z,26.52
2018-08-16T12:55:02.630Z,26.71
2018-08-16T12:57:31.214Z,26.82
2018-08-16T12:59:59.566Z,26.77
2018-08-16T13:02:27.887Z,27.13
2018-08-16T13:04:56.231Z,27.06
2018-08-16T13:07:24.554Z,27.06
2018-08-16T13:09:53.006Z,27.23
2018-08-16T13:12:21.887Z,27.15
2018-08-16T13:14:50.267Z,27.35
2018-08-16T13:17:19.042Z,27.35
2018-08-16T13:19:47.424Z,27.37
2018-08-16T13:22:22.637Z,27.31
2018-08-16T13:24:51.103Z,27.37
2018-08-16T13:27:19.409Z,27.28
2018-08-16T13:29:48.020Z,27.18
2018-08-16T13:32:16.459Z,27.28
2018-08-16T13:34:44.855Z,27.19
2018-08-16T13:37:13.443Z,27.34
2018-08-16T13:39:41.750Z,27.54
2018-08-16T13:42:10.327Z,27.27
2018-08-16T13:44:38.754Z,27.21
2018-08-16T13:47:07.264Z,27.46
2018-08-16T13:49:35.588Z,27.57
2018-08-16T13:52:04.413Z,27.45
2018-08-16T13:54:32.772Z,27.61
2018-08-16T13:57:01.074Z,27.66
2018-08-16T13:59:29.425Z,27.98
2018-08-16T14:01:57.785Z,27.58
2018-08-16T14:04:26.109Z,27.96
2018-08-16T14:06:54.369Z,27.78
2018-08-16T14:09:22.716Z,27.80
2018-08-16T14:11:51.199Z,27.77
2018-08-16T14:14:19.582Z,27.99
2018-08-16T14:16:47.919Z,28.06
2018-08-16T14:19:16.416Z,28.12
2018-08-16T14:21:44.877Z,28.16
2018-08-16T14:24:13.237Z,28.06
2018-08-16T14:26:41.585Z,28.28
2018-08-16T14:29:09.901Z,28.01
2018-08-16T14:31:38.203Z,28.08
2018-08-16T14:34:06.527Z,27.92
2018-08-16T14:36:34.850Z,28.34
2018-08-16T14:39:03.213Z,28.33
2018-08-16T14:41:31.721Z,28.24
2018-08-16T14:44:00.336Z,28.25
2018-08-16T14:46:28.642Z,28.18
2018-08-16T14:48:56.942Z,28.33
2018-08-16T14:51:25.378Z,28.39
2018-08-16T14:53:53.637Z,28.26
2018-08-16T14:56:22.064Z,28.10
2018-08-16T14:58:50.407Z,28.37
2018-08-16T15:01:18.715Z,28.37
2018-08-16T15:03:47.148Z,28.53
2018-08-16T15:06:15.466Z,28.63
2018-08-16T15:08:43.801Z,28.41
2018-08-16T15:11:12.133Z,28.54
2018-08-16T15:13:40.459Z,28.66
2018-08-16T15:16:08.778Z,28.71
2018-08-16T15:18:37.085Z,28.49
2018-08-16T15:21:05.446Z,28.51
2018-08-16T15:23:33.754Z,28.43
2018-08-16T15:26:02.126Z,28.57
2018-08-16T15:28:30.495Z,28.57
2018-08-16T15:30:58.935Z,28.45
2018-08-16T15:33:27.266Z,28.22
2018-08-16T15:35:55.758Z,28.17
2018-08-16T15:38:24.106Z,28.22
2018-08-16T15:40:52.656Z,28.34
2018-08-16T15:43:20.890Z,28.38
2018-08-16T15:45:49.216Z,28.35
2018-08-16T15:48:17.551Z,28.58
2018-08-16T15:50:46.366Z,28.67
2018-08-16T15:53:14.881Z,28.45
2018-08-16T15:55:44.218Z,28.47
2018-08-16T15:58:12.532Z,28.30
2018-08-16T16:00:40.848Z,28.30
2018-08-16T16:03:09.401Z,28.42
2018-08-16T16:05:37.829Z,28.38
2018-08-16T16:08:06.162Z,28.23
2018-08-16T16:10:34.570Z,28.09
2018-08-16T16:13:02.926Z,28.14
2018-08-16T16:15:31.260Z,28.24
2018-08-16T16:17:59.769Z,28.28
2018-08-16T16:20:28.102Z,28.24
2018-08-16T16:22:56.576Z,28.42
2018-08-16T16:25:24.873Z,28.35
2018-08-16T16:27:53.344Z,28.31
2018-08-16T16:30:21.625Z,28.50
2018-08-16T16:32:49.939Z,28.48
2018-08-16T16:35:18.209Z,28.51
2018-08-16T16:37:46.584Z,28.45
2018-08-16T16:40:14.890Z,28.33
2018-08-16T16:42:43.234Z,28.26
2018-08-16T16:45:11.518Z,28.25
2018-08-16T16:47:39.851Z,28.06
2018-08-16T16:50:09.099Z,28.24
2018-08-16T16:52:44.734Z,28.26
2018-08-16T16:55:13.069Z,28.37
2018-08-16T16:57:41.354Z,28.42
2018-08-16T17:00:09.844Z,28.28
2018-08-16T17:02:38.287Z,28.32
2018-08-16T17:05:06.705Z,28.23
2018-08-16T17:07:35.062Z,28.22
2018-08-16T17:10:03.376Z,28.15
2018-08-16T17:12:31.848Z,28.20
2018-08-16T17:15:00.176Z,28.10
2018-08-16T17:17:28.566Z,27.97
2018-08-16T17:19:56.859Z,28.06
2018-08-16T17:22:25.364Z,28.03
2018-08-16T17:24:53.845Z,28.05
2018-08-16T17:27:22.299Z,27.96
2018-08-16T17:29:50.584Z,27.93
2018-08-16T17:32:19.185Z,27.60
2018-08-16T17:34:47.651Z,27.41
2018-08-16T17:37:15.953Z,27.35
2018-08-16T17:39:44.269Z,27.17
2018-08-16T17:42:12.862Z,26.92
2018-08-16T17:44:41.163Z,26.58
2018-08-16T17:47:09.748Z,26.44
2018-08-16T17:49:38.095Z,26.26
2018-08-16T17:52:06.570Z,26.03
2018-08-16T17:54:35.103Z,25.83
2018-08-16T17:57:03.447Z,25.55
2018-08-16T17:59:31.979Z,25.45
2018-08-16T18:02:00.555Z,25.37
2018-08-16T18:04:29.042Z,25.27
2018-08-16T18:06:57.799Z,25.15
2018-08-16T18:09:26.110Z,25.12
2018-08-16T18:11:54.553Z,25.13
2018-08-16T18:14:22.842Z,25.06
2018-08-16T18:16:51.159Z,25.14
2018-08-16T18:19:19.575Z,25.08
2018-08-16T18:21:47.992Z,24.98
2018-08-16T18:24:16.313Z,24.92
2018-08-16T18:26:44.612Z,24.71
2018-08-16T18:29:13.116Z,24.69
2018-08-16T18:31:41.629Z,24.46
2018-08-16T18:34:10.102Z,24.26
2018-08-16T18:36:38.626Z,24.12
2018-08-16T18:39:08.612Z,23.99
2018-08-16T18:41:37.289Z,24.05
2018-08-16T18:44:05.572Z,23.79
2018-08-16T18:46:33.912Z,23.70
2018-08-16T18:49:02.569Z,23.65
2018-08-16T18:51:30.863Z,23.48
2018-08-16T18:53:59.354Z,23.38
2018-08-16T18:56:27.671Z,23.24
2018-08-16T18:58:56.078Z,23.29
2018-08-16T19:01:25.705Z,23.14
2018-08-16T19:03:54.845Z,23.06
2018-08-16T19:06:24.490Z,23.10
2018-08-16T19:08:52.837Z,23.00
2018-08-16T19:11:21.292Z,22.96
2018-08-16T19:13:49.771Z,22.83
2018-08-16T19:16:18.192Z,22.72
2018-08-16T19:18:46.601Z,22.69
2018-08-16T19:21:14.860Z,22.53
2018-08-16T19:23:43.243Z,22.44
2018-08-16T19:26:11.839Z,22.33
2018-08-16T19:28:40.155Z,22.26
2018-08-16T19:31:08.428Z,22.14
2018-08-16T19:33:36.734Z,21.93
2018-08-16T19:36:05.784Z,21.96
2018-08-16T19:38:34.186Z,21.88
2018-08-16T19:41:02.597Z,21.76
2018-08-16T19:43:31.065Z,21.62
2018-08-16T19:45:59.655Z,21.52
2018-08-16T19:48:28.063Z,21.38
2018-08-16T19:50:56.366Z,21.22
2018-08-16T19:53:24.731Z,21.14
2018-08-16T19:55:53.128Z,20.98
2018-08-16T19:58:21.438Z,20.82
2018-08-16T20:00:49.800Z,20.76
2018-08-16T20:03:18.137Z,20.85
2018-08-16T20:05:46.542Z,20.80
2018-08-16T20:08:14.895Z,20.76
2018-08-16T20:10:43.192Z,20.75
2018-08-16T20:13:11.606Z,20.62
2018-08-16T20:15:40.181Z,20.62
2018-08-16T20:18:08.658Z,20.64
2018-08-16T20:20:36.891Z,20.56
2018-08-16T20:23:05.344Z,20.43
2018-08-16T20:25:33.770Z,20.34
2018-08-16T20:28:02.184Z,20.35
2018-08-16T20:30:33.127Z,20.41
2018-08-16T20:33:01.522Z,20.32
2018-08-16T20:35:29.863Z,20.06
2018-08-16T20:37:58.310Z,19.46
2018-08-16T20:40:26.705Z,19.28
2018-08-16T20:42:55.255Z,19.53
2018-08-16T20:45:23.516Z,19.51
2018-08-16T20:47:51.829Z,19.64
2018-08-16T20:50:20.143Z,19.73
2018-08-16T20:52:48.432Z,19.74
2018-08-16T20:55:16.784Z,19.57
2018-08-16T20:57:45.238Z,19.21
2018-08-16T21:00:13.594Z,19.01
2018-08-16T21:02:41.904Z,19.17
2018-08-16T21:05:10.483Z,19.12
2018-08-16T21:07:38.740Z,19.11
2018-08-16T21:10:08.188Z,19.14
2018-08-16T21:12:36.455Z,19.24
2018-08-16T21:15:05.944Z,19.31
2018-08-16T21:17:34.122Z,19.11
2018-08-16T21:20:02.515Z,18.84
2018-08-16T21:22:30.804Z,18.83
2018-08-16T21:24:59.092Z,18.92
2018-08-16T21:27:27.498Z,18.95
2018-08-16T21:29:55.787Z,18.92
2018-08-16T21:32:24.086Z,18.84
2018-08-16T21:34:52.355Z,18.88
2018-08-16T21:37:20.659Z,18.82
2018-08-16T21:39:48.954Z,18.69
2018-08-16T21:42:17.294Z,18.73
2018-08-16T21:44:45.623Z,18.74
2018-08-16T21:47:14.063Z,18.66
2018-08-16T21:49:42.346Z,18.59
2018-08-16T21:52:10.726Z,18.49
2018-08-16T21:54:39.026Z,18.50
2018-08-16T21:57:07.471Z,18.39
2018-08-16T21:59:35.846Z,18.20
2018-08-16T22:02:04.671Z,18.12
2018-08-16T22:04:33.005Z,18.30
2018-08-16T22:07:09.964Z,18.32
2018-08-16T22:09:38.387Z,18.33
2018-08-16T22:12:06.679Z,18.35
2018-08-16T22:14:35.035Z,18.27
2018-08-16T22:17:03.347Z,18.22
2018-08-16T22:19:31.628Z,17.99
2018-08-16T22:21:59.950Z,18.51
2018-08-16T22:24:28.214Z,20.24
2018-08-16T22:26:56.555Z,20.63
2018-08-16T22:29:24.846Z,20.92
2018-08-16T22:31:59.074Z,20.86
2018-08-16T22:34:27.358Z,20.64
2018-08-16T22:36:55.656Z,19.95
2018-08-16T22:39:24.090Z,19.90
2018-08-16T22:41:52.508Z,19.52
2018-08-16T22:44:20.843Z,19.41
2018-08-16T22:46:49.161Z,19.44
2018-08-16T22:49:17.435Z,19.24
2018-08-16T22:51:45.745Z,19.21
2018-08-16T22:54:14.271Z,19.32
2018-08-16T22:56:42.603Z,19.28
2018-08-16T22:59:10.898Z,19.38
2018-08-16T23:01:39.280Z,19.61
2018-08-16T23:04:07.602Z,19.79
2018-08-16T23:06:35.943Z,20.37
2018-08-16T23:09:04.800Z,20.71
2018-08-16T23:11:33.247Z,21.02
2018-08-16T23:14:01.565Z,21.17
2018-08-16T23:16:29.872Z,21.10
2018-08-16T23:18:58.249Z,21.27
2018-08-16T23:21:26.566Z,21.24
2018-08-16T23:23:54.891Z,21.36
2018-08-16T23:26:23.172Z,21.27
2018-08-16T23:28:51.620Z,21.19
2018-08-16T23:31:20.043Z,21.38
2018-08-16T23:33:48.584Z,21.09
2018-08-16T23:36:16.907Z,21.18
2018-08-16T23:38:45.225Z,21.05
2018-08-16T23:41:13.619Z,20.99
2018-08-16T23:43:42.619Z,20.92
2018-08-16T23:46:10.987Z,21.00
2018-08-16T23:48:39.294Z,20.86
2018-08-16T23:51:07.579Z,21.09
2018-08-16T23:53:35.903Z,21.03
2018-08-16T23:56:04.238Z,20.92
2018-08-16T23:58:32.570Z,20.98
